createdAt,value
2023-05-06T00:02:09.799Z,63.67
2023-05-06T00:04:36.581Z,63.44
2023-05-06T00:07:03.258Z,63.90
2023-05-06T00:09:29.857Z,64.03
2023-05-06T00:11:56.474Z,63.79
2023-05-06T00:14:23.663Z,64.13
2023-05-06T00:16:53.266Z,63.59
2023-05-06T00:19:20.233Z,63.59
2023-05-06T00:21:46.971Z,63.83
2023-05-06T00:24:13.750Z,64.48
2023-05-06T00:26:40.196Z,64.78
2023-05-06T00:29:06.895Z,64.42
2023-05-06T00:31:36.100Z,64.68
2023-05-06T00:34:02.803Z,64.36
2023-05-06T00:36:29.511Z,64.04
2023-05-06T00:38:56.989Z,64.30
2023-05-06T00:41:24.082Z,64.07
2023-05-06T00:43:50.707Z,64.09
2023-05-06T00:46:18.038Z,64.19
2023-05-06T00:48:44.777Z,64.77
2023-05-06T00:51:14.987Z,64.70
2023-05-06T00:53:43.920Z,64.55
2023-05-06T00:56:11.009Z,64.66
2023-05-06T00:58:40.958Z,64.91
2023-05-06T01:01:07.891Z,64.62
2023-05-06T01:03:34.612Z,64.76
2023-05-06T01:06:07.632Z,64.73
2023-05-06T01:08:43.036Z,64.96
2023-05-06T01:11:15.938Z,65.02
2023-05-06T01:13:51.968Z,64.60
2023-05-06T01:16:22.955Z,64.52
2023-05-06T01:18:53.156Z,65.16
2023-05-06T01:21:21.527Z,64.54
2023-05-06T01:23:57.339Z,64.44
2023-05-06T01:26:24.777Z,64.68
2023-05-06T01:28:51.503Z,64.52
2023-05-06T01:31:47.610Z,64.74
2023-05-06T01:34:20.463Z,64.29
2023-05-06T01:37:06.576Z,64.40
2023-05-06T01:39:37.330Z,64.25
2023-05-06T01:42:09.064Z,64.07
2023-05-06T01:44:38.910Z,64.00
2023-05-06T01:47:08.315Z,64.14
2023-05-06T01:49:35.636Z,63.80
2023-05-06T01:52:02.421Z,64.06
2023-05-06T01:54:29.022Z,63.51
2023-05-06T01:56:55.767Z,63.41
2023-05-06T01:59:22.275Z,63.28
2023-05-06T02:01:48.959Z,63.17
2023-05-06T02:04:16.567Z,63.17
2023-05-06T02:06:43.169Z,63.25
2023-05-06T02:09:11.244Z,63.02
2023-05-06T02:11:42.316Z,62.94
2023-05-06T02:14:08.926Z,62.84
2023-05-06T02:16:36.106Z,62.77
2023-05-06T02:19:02.986Z,62.62
2023-05-06T02:21:29.664Z,62.66
2023-05-06T02:23:56.405Z,62.51
2023-05-06T02:26:23.289Z,62.49
2023-05-06T02:28:49.922Z,62.62
2023-05-06T02:31:16.878Z,62.39
2023-05-06T02:33:45.162Z,62.39
2023-05-06T02:36:11.642Z,62.37
2023-05-06T02:38:38.247Z,62.37
2023-05-06T02:41:04.830Z,62.34
2023-05-06T02:43:31.325Z,62.40
2023-05-06T02:45:58.404Z,62.34
2023-05-06T02:48:25.911Z,62.30
2023-05-06T02:50:52.483Z,62.50
2023-05-06T02:53:19.007Z,62.45
2023-05-06T02:55:46.095Z,62.59
2023-05-06T02:58:12.801Z,62.51
2023-05-06T03:00:39.314Z,62.69
2023-05-06T03:03:06.136Z,62.80
2023-05-06T03:05:32.749Z,62.58
2023-05-06T03:07:59.884Z,62.76
2023-05-06T03:10:26.931Z,62.61
2023-05-06T03:12:54.562Z,62.78
2023-05-06T03:15:21.203Z,62.88
2023-05-06T03:17:48.027Z,62.80
2023-05-06T03:20:15.639Z,62.80
2023-05-06T03:22:45.810Z,62.96
2023-05-06T03:25:12.721Z,63.19
2023-05-06T03:27:39.945Z,62.99
2023-05-06T03:30:12.083Z,63.16
2023-05-06T03:32:38.887Z,63.19
2023-05-06T03:35:07.741Z,62.94
2023-05-06T03:37:35.212Z,63.09
2023-05-06T03:40:04.016Z,63.37
2023-05-06T03:42:31.504Z,63.28
2023-05-06T03:44:58.402Z,63.09
2023-05-06T03:47:26.030Z,63.10
2023-05-06T03:49:52.590Z,63.32
2023-05-06T03:52:19.343Z,63.29
2023-05-06T03:54:46.178Z,63.34
2023-05-06T03:57:12.995Z,63.19
2023-05-06T03:59:39.731Z,63.23
2023-05-06T04:02:06.839Z,63.55
2023-05-06T04:04:35.229Z,63.81
2023-05-06T04:07:03.181Z,63.28
2023-05-06T04:09:31.794Z,63.22
2023-05-06T04:11:58.922Z,63.32
2023-05-06T04:14:25.752Z,63.36
2023-05-06T04:16:52.635Z,63.69
2023-05-06T04:19:21.094Z,63.47
2023-05-06T04:21:47.761Z,63.56
2023-05-06T04:24:18.477Z,63.42
2023-05-06T04:26:45.983Z,63.67
2023-05-06T04:29:13.261Z,63.57
2023-05-06T04:31:45.800Z,63.75
2023-05-06T04:34:12.869Z,63.92
2023-05-06T04:36:40.758Z,63.92
2023-05-06T04:39:26.758Z,64.56
2023-05-06T04:41:53.800Z,63.95
2023-05-06T04:44:26.523Z,63.95
2023-05-06T04:46:53.660Z,63.83
2023-05-06T04:49:20.280Z,63.80
2023-05-06T04:51:46.904Z,64.00
2023-05-06T04:54:16.605Z,64.13
2023-05-06T04:56:43.610Z,64.39
2023-05-06T04:59:10.809Z,64.17
2023-05-06T05:01:37.900Z,64.29
2023-05-06T05:04:04.608Z,64.45
2023-05-06T05:06:31.441Z,64.36
2023-05-06T05:08:59.612Z,64.37
2023-05-06T05:11:26.870Z,64.35
2023-05-06T05:13:56.910Z,64.50
2023-05-06T05:16:24.684Z,64.48
2023-05-06T05:18:52.537Z,64.32
2023-05-06T05:21:21.507Z,64.44
2023-05-06T05:23:48.212Z,64.28
2023-05-06T05:26:14.977Z,64.54
2023-05-06T05:28:43.606Z,64.35
2023-05-06T05:31:10.819Z,64.70
2023-05-06T05:33:38.399Z,64.60
2023-05-06T05:36:07.680Z,64.50
2023-05-06T05:38:35.101Z,64.28
2023-05-06T05:41:01.931Z,64.44
2023-05-06T05:43:28.720Z,64.41
2023-05-06T05:45:56.006Z,64.70
2023-05-06T05:48:22.745Z,64.60
2023-05-06T05:50:50.241Z,64.88
2023-05-06T05:53:17.072Z,64.97
2023-05-06T05:55:43.860Z,64.83
2023-05-06T05:58:11.170Z,64.71
2023-05-06T06:00:38.122Z,64.95
2023-05-06T06:03:07.301Z,65.01
2023-05-06T06:05:34.129Z,65.08
2023-05-06T06:08:03.511Z,65.57
2023-05-06T06:10:30.828Z,65.49
2023-05-06T06:12:59.031Z,65.55
2023-05-06T06:15:26.638Z,65.86
2023-05-06T06:17:54.369Z,65.97
2023-05-06T06:20:21.407Z,66.27
2023-05-06T06:22:47.944Z,65.99
2023-05-06T06:25:14.796Z,65.77
2023-05-06T06:27:41.527Z,66.39
2023-05-06T06:30:08.964Z,66.29
2023-05-06T06:32:35.485Z,66.12
2023-05-06T06:35:02.281Z,65.72
2023-05-06T06:37:29.007Z,65.38
2023-05-06T06:39:55.539Z,65.38
2023-05-06T06:42:22.093Z,65.05
2023-05-06T06:44:57.980Z,64.83
2023-05-06T06:47:24.622Z,64.63
2023-05-06T06:49:51.116Z,64.62
2023-05-06T06:52:17.679Z,64.55
2023-05-06T06:54:44.338Z,64.65
2023-05-06T06:57:11.091Z,64.53
2023-05-06T06:59:37.687Z,64.79
2023-05-06T07:02:04.277Z,64.52
2023-05-06T07:04:30.795Z,63.98
2023-05-06T07:06:57.469Z,63.53
2023-05-06T07:09:24.055Z,63.23
2023-05-06T07:11:51.161Z,63.20
2023-05-06T07:14:17.734Z,63.48
2023-05-06T07:16:46.387Z,63.39
2023-05-06T07:19:13.809Z,63.29
2023-05-06T07:21:40.944Z,63.03
2023-05-06T07:24:07.798Z,62.70
2023-05-06T07:26:37.727Z,62.50
2023-05-06T07:29:04.338Z,62.52
2023-05-06T07:31:34.326Z,62.41
2023-05-06T07:34:01.168Z,61.82
2023-05-06T07:36:28.321Z,61.57
2023-05-06T07:38:55.009Z,61.63
2023-05-06T07:41:21.480Z,61.66
2023-05-06T07:43:48.091Z,61.47
2023-05-06T07:46:15.217Z,61.43
2023-05-06T07:48:42.052Z,61.68
2023-05-06T07:51:08.784Z,61.67
2023-05-06T07:53:35.448Z,61.22
2023-05-06T07:56:03.321Z,60.53
2023-05-06T07:58:31.150Z,60.60
2023-05-06T08:00:59.362Z,60.35
2023-05-06T08:03:26.350Z,60.30
2023-05-06T08:05:54.686Z,60.32
2023-05-06T08:08:22.657Z,60.12
2023-05-06T08:10:49.255Z,59.91
2023-05-06T08:13:16.002Z,59.72
2023-05-06T08:15:42.791Z,59.65
2023-05-06T08:18:20.655Z,59.38
2023-05-06T08:20:49.390Z,59.29
2023-05-06T08:23:16.156Z,59.33
2023-05-06T08:25:42.793Z,59.46
2023-05-06T08:28:09.862Z,59.48
2023-05-06T08:30:36.370Z,59.67
2023-05-06T08:33:03.219Z,59.80
2023-05-06T08:35:30.163Z,59.31
2023-05-06T08:37:56.642Z,59.62
2023-05-06T08:40:26.312Z,59.66
2023-05-06T08:42:55.583Z,59.37
2023-05-06T08:45:22.871Z,58.32
2023-05-06T08:47:49.569Z,58.73
2023-05-06T08:50:16.461Z,58.86
2023-05-06T08:52:43.304Z,58.56
2023-05-06T08:55:10.782Z,58.48
2023-05-06T08:57:38.039Z,58.64
2023-05-06T09:00:05.218Z,58.64
2023-05-06T09:02:32.091Z,58.57
2023-05-06T09:04:59.226Z,58.67
2023-05-06T09:07:26.264Z,58.68
2023-05-06T09:09:52.982Z,58.84
2023-05-06T09:12:19.602Z,59.06
2023-05-06T09:14:49.378Z,59.16
2023-05-06T09:17:23.643Z,59.24
2023-05-06T09:19:52.161Z,59.09
2023-05-06T09:22:23.037Z,59.48
2023-05-06T09:24:56.014Z,59.81
2023-05-06T09:27:30.618Z,60.33
2023-05-06T09:30:03.565Z,60.32
2023-05-06T09:32:31.074Z,60.83
2023-05-06T09:34:58.038Z,61.64
2023-05-06T09:37:27.876Z,62.28
2023-05-06T09:39:56.353Z,61.79
2023-05-06T09:42:28.073Z,62.58
2023-05-06T09:44:58.588Z,62.86
2023-05-06T09:47:29.373Z,62.75
2023-05-06T09:49:57.944Z,62.69
2023-05-06T09:52:28.071Z,63.37
2023-05-06T09:54:55.257Z,62.89
2023-05-06T09:57:22.192Z,62.45
2023-05-06T09:59:51.589Z,62.49
2023-05-06T10:02:19.276Z,62.54
2023-05-06T10:04:48.988Z,62.65
2023-05-06T10:07:22.012Z,62.19
2023-05-06T10:09:50.909Z,62.06
2023-05-06T10:12:20.890Z,61.69
2023-05-06T10:14:47.839Z,61.69
2023-05-06T10:17:17.647Z,61.49
2023-05-06T10:19:49.908Z,61.44
2023-05-06T10:22:46.618Z,61.18
2023-05-06T10:25:16.473Z,60.67
2023-05-06T10:27:45.270Z,60.41
2023-05-06T10:30:16.283Z,60.49
2023-05-06T10:32:45.153Z,60.90
2023-05-06T10:35:22.163Z,60.83
2023-05-06T10:37:51.128Z,60.66
2023-05-06T10:40:18.540Z,60.61
2023-05-06T10:42:45.268Z,60.35
2023-05-06T10:45:14.671Z,60.35
2023-05-06T10:47:57.024Z,60.74
2023-05-06T10:50:25.265Z,60.64
2023-05-06T10:52:56.816Z,60.53
2023-05-06T10:55:31.126Z,60.77
2023-05-06T10:58:14.001Z,60.92
2023-05-06T11:00:41.125Z,60.73
2023-05-06T11:03:11.202Z,60.72
2023-05-06T11:05:54.380Z,60.54
2023-05-06T11:08:23.237Z,60.70
2023-05-06T11:10:50.582Z,60.89
2023-05-06T11:13:22.295Z,61.23
2023-05-06T11:15:51.370Z,61.21
2023-05-06T11:18:24.462Z,61.33
2023-05-06T11:21:19.862Z,61.44
2023-05-06T11:23:48.732Z,61.68
2023-05-06T11:26:15.882Z,61.86
2023-05-06T11:28:44.187Z,62.53
2023-05-06T11:31:12.578Z,62.36
2023-05-06T11:33:46.365Z,62.64
2023-05-06T11:36:18.123Z,62.69
2023-05-06T11:38:51.965Z,62.89
2023-05-06T11:41:19.111Z,64.24
2023-05-06T11:43:50.466Z,64.03
2023-05-06T11:46:21.693Z,64.74
2023-05-06T11:48:49.853Z,64.49
2023-05-06T11:51:21.879Z,64.80
2023-05-06T11:53:48.862Z,65.40
2023-05-06T11:56:15.723Z,65.15
2023-05-06T11:58:43.338Z,66.21
2023-05-06T12:01:09.895Z,65.99
2023-05-06T12:03:36.784Z,65.91
2023-05-06T12:06:04.147Z,66.22
2023-05-06T12:08:35.726Z,66.56
2023-05-06T12:11:06.657Z,66.32
2023-05-06T12:13:36.073Z,67.16
2023-05-06T12:16:05.001Z,68.21
2023-05-06T12:18:32.085Z,67.96
2023-05-06T12:21:02.570Z,68.20
2023-05-06T12:23:29.426Z,68.17
2023-05-06T12:26:04.399Z,68.37
2023-05-06T12:28:32.620Z,68.25
2023-05-06T12:31:00.390Z,67.99
2023-05-06T12:33:27.035Z,68.98
2023-05-06T12:36:05.577Z,69.14
2023-05-06T12:38:32.562Z,69.59
2023-05-06T12:40:59.126Z,69.82
2023-05-06T12:43:30.865Z,69.62
2023-05-06T12:46:08.305Z,70.98
2023-05-06T12:48:35.103Z,70.46
2023-05-06T12:51:17.855Z,69.91
2023-05-06T12:53:44.497Z,70.36
2023-05-06T12:56:11.070Z,70.80
2023-05-06T12:58:39.045Z,71.27
2023-05-06T13:01:09.374Z,70.98
2023-05-06T13:03:38.600Z,71.20
2023-05-06T13:06:05.628Z,72.23
2023-05-06T13:08:33.333Z,72.61
2023-05-06T13:11:01.775Z,71.71
2023-05-06T13:13:28.555Z,72.71
2023-05-06T13:15:55.917Z,73.02
2023-05-06T13:18:23.114Z,74.39
2023-05-06T13:20:51.297Z,73.23
2023-05-06T13:23:21.894Z,73.41
2023-05-06T13:26:02.939Z,73.37
2023-05-06T13:28:32.219Z,73.75
2023-05-06T13:30:59.010Z,74.76
2023-05-06T13:33:25.659Z,74.91
2023-05-06T13:35:52.574Z,74.81
2023-05-06T13:38:19.141Z,75.46
2023-05-06T13:40:51.036Z,74.58
2023-05-06T13:43:18.898Z,74.65
2023-05-06T13:45:45.618Z,75.09
2023-05-06T13:48:15.167Z,75.03
2023-05-06T13:50:43.201Z,74.91
2023-05-06T13:53:11.037Z,75.59
2023-05-06T13:55:37.793Z,75.45
2023-05-06T13:58:06.211Z,75.23
2023-05-06T14:00:34.155Z,76.09
2023-05-06T14:03:01.170Z,75.43
2023-05-06T14:05:29.908Z,75.58
2023-05-06T14:07:56.593Z,76.38
2023-05-06T14:10:23.495Z,77.44
2023-05-06T14:12:50.666Z,77.23
2023-05-06T14:15:17.340Z,76.15
2023-05-06T14:17:44.337Z,75.95
2023-05-06T14:20:11.265Z,76.34
2023-05-06T14:22:40.793Z,76.81
2023-05-06T14:25:08.707Z,76.64
2023-05-06T14:27:36.488Z,77.11
2023-05-06T14:30:08.865Z,77.07
2023-05-06T14:32:36.803Z,77.91
2023-05-06T14:35:03.952Z,77.59
2023-05-06T14:37:30.486Z,77.42
2023-05-06T14:39:57.306Z,77.12
2023-05-06T14:42:27.654Z,77.97
2023-05-06T14:44:54.564Z,79.62
2023-05-06T14:47:21.579Z,79.23
2023-05-06T14:49:48.276Z,79.68
2023-05-06T14:52:15.013Z,80.82
2023-05-06T14:54:42.353Z,79.88
2023-05-06T14:57:10.337Z,80.84
2023-05-06T14:59:37.831Z,79.69
2023-05-06T15:02:07.574Z,80.24
2023-05-06T15:04:34.653Z,79.99
2023-05-06T15:07:02.174Z,79.20
2023-05-06T15:09:29.131Z,78.96
2023-05-06T15:11:57.119Z,79.89
2023-05-06T15:14:28.220Z,79.55
2023-05-06T15:17:02.370Z,78.59
2023-05-06T15:19:29.456Z,79.32
2023-05-06T15:21:56.595Z,78.93
2023-05-06T15:24:25.814Z,78.31
2023-05-06T15:26:54.778Z,78.96
2023-05-06T15:29:21.743Z,79.58
2023-05-06T15:31:49.471Z,78.96
2023-05-06T15:34:16.354Z,78.57
2023-05-06T15:36:43.924Z,79.18
2023-05-06T15:39:13.557Z,78.95
2023-05-06T15:41:40.678Z,80.50
2023-05-06T15:44:09.964Z,79.08
2023-05-06T15:46:38.017Z,78.89
2023-05-06T15:51:35.123Z,80.36
2023-05-06T15:54:04.614Z,79.69
2023-05-06T15:56:39.303Z,79.81
2023-05-06T15:59:08.532Z,81.23
2023-05-06T16:02:18.867Z,81.16
2023-05-06T16:04:23.706Z,81.79
2023-05-06T16:06:50.540Z,81.72
2023-05-06T16:09:17.366Z,81.45
2023-05-06T16:11:44.581Z,80.92
2023-05-06T16:14:11.311Z,81.70
2023-05-06T16:16:38.212Z,81.54
2023-05-06T16:19:05.361Z,81.97
2023-05-06T16:21:31.968Z,82.27
2023-05-06T16:24:00.401Z,81.94
2023-05-06T16:26:27.383Z,81.24
2023-05-06T16:28:54.119Z,80.38
2023-05-06T16:31:20.916Z,81.31
2023-05-06T16:33:47.661Z,81.39
2023-05-06T16:36:14.540Z,81.53
2023-05-06T16:38:41.389Z,82.27
2023-05-06T16:41:08.194Z,82.09
2023-05-06T16:43:34.808Z,82.27
2023-05-06T16:46:01.483Z,82.48
2023-05-06T16:48:28.596Z,82.36
2023-05-06T16:50:55.364Z,82.34
2023-05-06T16:53:22.031Z,82.10
2023-05-06T16:55:49.508Z,81.49
2023-05-06T16:58:16.398Z,81.33
2023-05-06T17:00:43.305Z,80.97
2023-05-06T17:03:10.966Z,80.77
2023-05-06T17:05:38.436Z,81.54
2023-05-06T17:08:05.305Z,81.67
2023-05-06T17:10:32.304Z,81.81
2023-05-06T17:12:59.308Z,81.35
2023-05-06T17:15:26.451Z,81.68
2023-05-06T17:17:53.302Z,82.22
2023-05-06T17:20:20.507Z,81.52
2023-05-06T17:22:47.715Z,81.77
2023-05-06T17:25:15.072Z,82.22
2023-05-06T17:27:41.658Z,82.17
2023-05-06T17:30:11.774Z,82.40
2023-05-06T17:32:39.190Z,83.05
2023-05-06T17:35:06.777Z,81.84
2023-05-06T17:37:33.808Z,81.78
2023-05-06T17:40:00.623Z,82.53
2023-05-06T17:42:27.224Z,82.24
2023-05-06T17:44:54.218Z,83.08
2023-05-06T17:47:22.398Z,83.39
2023-05-06T17:49:53.075Z,82.80
2023-05-06T17:52:20.090Z,82.38
2023-05-06T17:55:05.671Z,82.85
2023-05-06T17:57:36.947Z,82.99
2023-05-06T18:00:04.147Z,83.02
2023-05-06T18:02:38.702Z,82.04
2023-05-06T18:05:06.191Z,82.55
2023-05-06T18:07:36.853Z,82.40
2023-05-06T18:10:03.747Z,83.47
2023-05-06T18:15:22.080Z,82.91
2023-05-06T18:17:49.527Z,83.07
2023-05-06T18:20:16.507Z,82.97
2023-05-06T18:22:43.325Z,83.55
2023-05-06T18:25:10.471Z,83.37
2023-05-06T18:27:40.090Z,84.12
2023-05-06T18:30:07.640Z,83.96
2023-05-06T18:32:35.802Z,83.09
2023-05-06T18:35:02.353Z,83.03
2023-05-06T18:37:29.093Z,83.15
2023-05-06T18:39:57.655Z,83.00
2023-05-06T18:42:24.374Z,83.39
2023-05-06T18:44:51.088Z,83.38
2023-05-06T18:47:18.669Z,83.08
2023-05-06T18:49:45.653Z,83.37
2023-05-06T18:52:14.602Z,83.54
2023-05-06T18:54:41.396Z,83.94
2023-05-06T18:57:08.465Z,84.12
2023-05-06T18:59:35.926Z,83.77
2023-05-06T19:02:03.809Z,84.39
2023-05-06T19:04:31.532Z,83.97
2023-05-06T19:06:58.530Z,83.69
2023-05-06T19:09:25.169Z,83.40
2023-05-06T19:11:51.794Z,83.21
2023-05-06T19:14:18.799Z,83.85
2023-05-06T19:16:46.041Z,84.45
2023-05-06T19:19:12.625Z,85.12
2023-05-06T19:21:39.378Z,84.87
2023-05-06T19:24:06.229Z,84.32
2023-05-06T19:26:32.906Z,84.04
2023-05-06T19:28:59.848Z,84.01
2023-05-06T19:31:26.592Z,84.20
2023-05-06T19:33:53.191Z,84.75
2023-05-06T19:36:19.930Z,84.33
2023-05-06T19:38:46.645Z,84.33
2023-05-06T19:41:13.411Z,83.65
2023-05-06T19:43:42.097Z,84.08
2023-05-06T19:46:10.119Z,84.01
2023-05-06T19:48:38.386Z,84.42
2023-05-06T19:51:06.140Z,83.88
2023-05-06T19:53:33.671Z,84.14
2023-05-06T19:56:11.425Z,84.28
2023-05-06T19:58:38.612Z,84.40
2023-05-06T20:01:05.472Z,84.52
2023-05-06T20:03:32.674Z,84.54
2023-05-06T20:05:59.584Z,85.16
2023-05-06T20:08:26.325Z,85.00
2023-05-06T20:10:53.224Z,84.11
2023-05-06T20:13:20.303Z,84.56
2023-05-06T20:15:48.335Z,84.46
2023-05-06T20:18:15.014Z,84.78
2023-05-06T20:20:42.728Z,84.81
2023-05-06T20:23:09.269Z,84.44
2023-05-06T20:25:36.965Z,84.61
2023-05-06T20:28:06.470Z,85.19
2023-05-06T20:30:34.259Z,84.19
2023-05-06T20:33:01.686Z,84.19
2023-05-06T20:35:28.503Z,83.96
2023-05-06T20:37:55.148Z,83.94
2023-05-06T20:40:21.873Z,84.09
2023-05-06T20:42:48.626Z,84.22
2023-05-06T20:45:16.342Z,84.49
2023-05-06T20:47:46.272Z,84.45
2023-05-06T20:50:16.617Z,84.40
2023-05-06T20:52:45.353Z,84.76
2023-05-06T20:55:13.996Z,85.02
2023-05-06T20:57:44.385Z,84.86
2023-05-06T21:00:11.556Z,84.81
2023-05-06T21:02:41.486Z,84.89
2023-05-06T21:05:09.663Z,84.49
2023-05-06T21:07:36.376Z,84.57
2023-05-06T21:10:05.591Z,84.25
2023-05-06T21:12:32.818Z,84.47
2023-05-06T21:15:00.239Z,84.46
2023-05-06T21:17:26.978Z,85.08
2023-05-06T21:19:53.648Z,84.95
2023-05-06T21:22:22.452Z,85.01
2023-05-06T21:24:50.250Z,84.67
2023-05-06T21:27:16.855Z,84.36
2023-05-06T21:29:43.292Z,84.46
2023-05-06T21:32:10.041Z,84.39
2023-05-06T21:34:37.067Z,84.80
2023-05-06T21:37:03.591Z,85.40
2023-05-06T21:39:30.325Z,84.89
2023-05-06T21:41:57.633Z,85.35
2023-05-06T21:44:24.097Z,85.22
2023-05-06T21:46:50.816Z,85.08
2023-05-06T21:49:18.775Z,85.14
2023-05-06T21:51:45.672Z,85.20
2023-05-06T21:54:12.949Z,85.06
2023-05-06T21:56:39.878Z,85.16
2023-05-06T21:59:07.377Z,85.12
2023-05-06T22:01:35.716Z,84.83
2023-05-06T22:04:04.060Z,85.14
2023-05-06T22:06:30.821Z,85.19
2023-05-06T22:08:57.604Z,85.39
2023-05-06T22:11:24.430Z,84.92
2023-05-06T22:13:51.214Z,84.68
2023-05-06T22:16:18.001Z,85.36
2023-05-06T22:18:44.756Z,85.52
2023-05-06T22:21:11.294Z,85.73
2023-05-06T22:23:39.959Z,85.08
2023-05-06T22:26:06.651Z,84.92
2023-05-06T22:28:33.616Z,85.15
2023-05-06T22:31:00.333Z,85.26
2023-05-06T22:33:26.927Z,84.59
2023-05-06T22:35:54.969Z,84.80
2023-05-06T22:38:21.805Z,85.27
2023-05-06T22:40:48.681Z,85.15
2023-05-06T22:43:15.388Z,85.18
2023-05-06T22:45:42.760Z,84.76
2023-05-06T22:48:10.225Z,85.21
2023-05-06T22:50:37.439Z,84.89
2023-05-06T22:53:13.509Z,84.61
2023-05-06T22:55:41.823Z,84.89
2023-05-06T22:58:08.574Z,84.92
2023-05-06T23:00:35.224Z,85.10
2023-05-06T23:03:02.300Z,85.57
2023-05-06T23:05:29.302Z,85.41
2023-05-06T23:07:56.356Z,85.45
2023-05-06T23:10:23.515Z,84.97
2023-05-06T23:12:50.309Z,85.16
2023-05-06T23:15:16.971Z,85.43
2023-05-06T23:17:43.577Z,85.37
2023-05-06T23:20:12.209Z,85.29
2023-05-06T23:22:38.893Z,85.87
2023-05-06T23:25:05.974Z,85.77
2023-05-06T23:27:32.661Z,85.53
2023-05-06T23:29:59.302Z,84.94
2023-05-06T23:32:26.686Z,84.65
2023-05-06T23:34:53.360Z,85.09
2023-05-06T23:37:19.896Z,84.83
2023-05-06T23:39:47.095Z,84.60
2023-05-06T23:42:13.796Z,84.84
2023-05-06T23:44:40.264Z,85.59
2023-05-06T23:47:07.094Z,85.79
2023-05-06T23:49:35.669Z,85.88
2023-05-06T23:52:02.674Z,86.15
2023-05-06T23:54:29.296Z,85.87
2023-05-06T23:56:55.938Z,85.58
2023-05-06T23:59:22.496Z,85.68
